Time;durP1;ratioP1;P1;durP2;ratioP2;P2;SDS_P1;SDS_P2;PMS_P1;PMS_P2;Temp;Humidity;BMP_temperature;BMP_pressure;BME280_temperature;BME280_humidity;BME280_pressure;Samples;Min_cycle;Max_cycle;Signal;HPM_P1;HPM_P2
2023/10/24 05:47:10;;;;;;;1.73;0.90;;;;;;;;;;10588311;27;20411;-86
2023/10/24 05:52:11;;;;;;;1.55;1.05;;;;;;;;;;10581752;28;20083;-84
2023/10/24 05:57:13;;;;;;;1.75;1.00;;;;;;;;;;10597188;22;20044;-83
2023/10/24 06:02:47;;;;;;;1.48;1.05;;;;;;;;;;10503049;28;20094;-84
2023/10/24 06:08:02;;;;;;;2.17;1.45;;;;;;;;;;10497012;28;20048;-83
2023/10/24 06:13:09;;;;;;;4.05;1.75;;;;;;;;;;10497808;28;20039;-83
2023/10/24 06:18:10;;;;;;;1.70;1.20;;;;;;;;;;10502047;28;20043;-83
2023/10/24 06:23:12;;;;;;;;;;;;;;;;;;10528199;28;20036;-83
2023/10/24 06:28:16;;;;;;;1.67;1.10;;;;;;;;;;10528499;28;19927;-83
2023/10/24 06:33:17;;;;;;;3.72;2.80;;;;;;;;;;10503796;28;20029;-84
2023/10/24 06:38:27;;;;;;;4.70;2.20;;;;;;;;;;10504728;28;20024;-84
2023/10/24 06:43:36;;;;;;;2.83;1.65;;;;;;;;;;10506518;28;20039;-84
2023/10/24 06:48:57;;;;;;;2.70;1.48;;;;;;;;;;10504968;28;20033;-84
2023/10/24 06:54:00;;;;;;;2.92;1.25;;;;;;;;;;10503334;28;20025;-84
2023/10/24 06:59:01;;;;;;;2.97;1.30;;;;;;;;;;10475940;28;20426;-84
2023/10/24 07:04:04;;;;;;;2.75;1.48;;;;;;;;;;10479226;28;20029;-84
2023/10/24 07:09:19;;;;;;;2.38;0.88;;;;;;;;;;10475011;28;20488;-81
2023/10/24 08:11:16;;;;;;;3.38;1.50;;;;;;;;;;10526567;28;20024;-84
2023/10/24 08:22:15;;;;;;;2.78;1.70;;;;;;;;;;10432819;28;20374;-83
2023/10/24 08:27:41;;;;;;;4.65;1.80;;;;;;;;;;10431456;28;20037;-83
2023/10/24 08:32:42;;;;;;;3.47;1.48;;;;;;;;;;10415017;28;20025;-83
2023/10/24 08:37:43;;;;;;;2.35;1.70;;;;;;;;;;10417991;28;20067;-83
2023/10/24 08:42:44;;;;;;;2.55;1.60;;;;;;;;;;10507609;28;20059;-83
2023/10/24 08:47:47;;;;;;;3.55;1.70;;;;;;;;;;10500894;28;20476;-83
2023/10/24 08:52:48;;;;;;;3.00;1.40;;;;;;;;;;10503536;28;20034;-83
2023/10/24 08:57:50;;;;;;;3.75;1.58;;;;;;;;;;10504083;28;20028;-83
2023/10/24 09:02:51;;;;;;;2.08;1.30;;;;;;;;;;10504547;28;20032;-82
2023/10/24 09:07:52;;;;;;;2.38;1.23;;;;;;;;;;10503668;28;20035;-83
2023/10/24 09:12:56;;;;;;;3.58;1.30;;;;;;;;;;10501460;28;20024;-82
2023/10/24 09:17:57;;;;;;;3.55;2.22;;;;;;;;;;10520370;28;20131;-82
2023/10/24 09:23:09;;;;;;;3.47;1.23;;;;;;;;;;10505240;28;20035;-82
2023/10/24 09:28:17;;;;;;;2.22;1.10;;;;;;;;;;10506432;28;20456;-83
2023/10/24 09:33:18;;;;;;;1.88;1.08;;;;;;;;;;10526932;28;20017;-83
2023/10/24 09:38:24;;;;;;;3.70;1.67;;;;;;;;;;10506357;28;20024;-82
2023/10/24 09:43:25;;;;;;;2.13;1.15;;;;;;;;;;10506240;28;20028;-82
2023/10/24 09:48:27;;;;;;;1.25;1.08;;;;;;;;;;10522730;28;20071;-82
2023/10/24 09:53:28;;;;;;;3.17;1.10;;;;;;;;;;10503914;28;20483;-83
2023/10/24 09:58:29;;;;;;;3.20;2.35;;;;;;;;;;10516714;28;20032;-82
2023/10/24 10:03:31;;;;;;;2.30;1.15;;;;;;;;;;10497122;28;20033;-82
2023/10/24 10:08:35;;;;;;;2.58;1.35;;;;;;;;;;10507058;28;20041;-82
2023/10/24 10:13:57;;;;;;;2.83;1.33;;;;;;;;;;10545353;28;20183;-82
2023/10/24 10:19:01;;;;;;;2.65;1.25;;;;;;;;;;10497972;28;20064;-82
2023/10/24 10:24:02;;;;;;;2.20;1.02;;;;;;;;;;10524357;28;20021;-82
2023/10/24 10:29:12;;;;;;;3.72;1.33;;;;;;;;;;10519688;28;20032;-83
2023/10/24 10:34:13;;;;;;;3.80;1.50;;;;;;;;;;10523223;28;20461;-84
2023/10/24 10:39:14;;;;;;;3.75;1.55;;;;;;;;;;10509434;28;20036;-83
2023/10/24 10:44:28;;;;;;;3.25;1.60;;;;;;;;;;10524497;28;20384;-82
2023/10/24 10:49:38;;;;;;;3.13;1.50;;;;;;;;;;10509881;28;20025;-81
2023/10/24 10:54:48;;;;;;;2.55;1.65;;;;;;;;;;10504842;28;20036;-80
2023/10/24 11:00:02;;;;;;;3.00;1.77;;;;;;;;;;10506966;28;20028;-81
2023/10/24 11:05:23;;;;;;;2.65;1.40;;;;;;;;;;10508727;28;20025;-81
2023/10/24 11:10:24;;;;;;;3.72;1.67;;;;;;;;;;10504861;28;20047;-81
2023/10/24 11:15:25;;;;;;;2.85;1.50;;;;;;;;;;10508611;28;20045;-82
2023/10/24 11:20:27;;;;;;;1.70;1.13;;;;;;;;;;10509507;28;20025;-81
2023/10/24 11:25:28;;;;;;;2.00;1.30;;;;;;;;;;10512463;28;20027;-82
2023/10/24 11:30:30;;;;;;;3.08;1.10;;;;;;;;;;10513787;28;20032;-82
2023/10/24 11:35:31;;;;;;;2.42;1.10;;;;;;;;;;10510604;28;20063;-82
2023/10/24 11:40:32;;;;;;;2.28;1.23;;;;;;;;;;10524849;28;20423;-83
2023/10/24 11:45:35;;;;;;;3.90;1.30;;;;;;;;;;10525818;28;20024;-83
2023/10/24 11:50:44;;;;;;;3.33;1.30;;;;;;;;;;10504668;28;20438;-83
2023/10/24 11:55:45;;;;;;;2.22;1.17;;;;;;;;;;10503648;28;20043;-84
2023/10/24 12:00:46;;;;;;;4.50;1.70;;;;;;;;;;10602637;22;20051;-81
2023/10/24 12:05:52;;;;;;;1.95;1.40;;;;;;;;;;10579220;28;20035;-85
2023/10/24 12:10:55;;;;;;;3.42;1.30;;;;;;;;;;10597872;28;20034;-85
2023/10/24 12:15:57;;;;;;;3.05;1.80;;;;;;;;;;10578074;28;20051;-84
2023/10/24 12:20:58;;;;;;;2.58;1.50;;;;;;;;;;10579619;28;20133;-84
2023/10/24 12:26:01;;;;;;;4.35;2.78;;;;;;;;;;10575476;28;20032;-84
2023/10/24 12:31:03;;;;;;;2.22;1.60;;;;;;;;;;10600240;28;20073;-85
2023/10/24 12:36:08;;;;;;;4.72;1.30;;;;;;;;;;10587668;28;20044;-84
2023/10/24 12:41:14;;;;;;;4.40;1.38;;;;;;;;;;10582280;28;20027;-84
2023/10/24 12:46:17;;;;;;;2.97;1.42;;;;;;;;;;10598821;28;20059;-84
2023/10/24 12:51:27;;;;;;;2.72;1.60;;;;;;;;;;10583763;28;20024;-85
2023/10/24 12:56:28;;;;;;;2.38;1.95;;;;;;;;;;10566306;28;20164;-84
2023/10/24 13:01:29;;;;;;;2.13;1.40;;;;;;;;;;10583018;28;20047;-84
2023/10/24 13:06:33;;;;;;;3.55;2.28;;;;;;;;;;10580902;28;20075;-83
2023/10/24 13:11:36;;;;;;;2.83;1.73;;;;;;;;;;10584475;28;20030;-84
2023/10/24 13:16:37;;;;;;;4.78;1.80;;;;;;;;;;10605646;28;20043;-84
2023/10/24 13:21:38;;;;;;;4.68;1.80;;;;;;;;;;10595342;28;20126;-85
2023/10/24 13:26:40;;;;;;;2.95;1.85;;;;;;;;;;10588663;28;20024;-85
2023/10/24 13:31:41;;;;;;;3.40;1.80;;;;;;;;;;10586007;28;20049;-84
2023/10/24 13:36:43;;;;;;;2.15;1.20;;;;;;;;;;10587957;28;20115;-82
2023/10/24 13:41:44;;;;;;;2.10;1.20;;;;;;;;;;10585648;28;20030;-83
2023/10/24 13:46:46;;;;;;;1.75;1.08;;;;;;;;;;10586839;28;20024;-84
2023/10/24 13:51:47;;;;;;;2.88;1.77;;;;;;;;;;10609052;28;20031;-84
2023/10/24 13:56:50;;;;;;;4.22;2.10;;;;;;;;;;10601613;28;20054;-84
2023/10/24 14:01:51;;;;;;;2.65;1.38;;;;;;;;;;10584690;28;20069;-83
2023/10/24 14:06:54;;;;;;;3.00;1.60;;;;;;;;;;10611231;28;20034;-82
2023/10/24 14:11:55;;;;;;;4.93;2.45;;;;;;;;;;10612235;28;20035;-84
2023/10/24 14:16:57;;;;;;;2.60;1.45;;;;;;;;;;10587269;28;20030;-85
2023/10/24 14:22:10;;;;;;;3.90;1.33;;;;;;;;;;10584896;28;20036;-84
2023/10/24 14:27:21;;;;;;;;;;;;;;;;;;10601160;28;20140;-84
2023/10/24 14:32:43;;;;;;;5.55;1.73;;;;;;;;;;10470048;28;20233;-86
2023/10/24 14:37:45;;;;;;;2.13;1.33;;;;;;;;;;10559559;28;20036;-83
2023/10/24 14:42:47;;;;;;;3.15;1.60;;;;;;;;;;10582562;28;20102;-85
2023/10/24 14:47:59;;;;;;;1.88;1.30;;;;;;;;;;10583022;28;20026;-84
2023/10/24 14:53:00;;;;;;;2.35;1.70;;;;;;;;;;10580141;28;20024;-84
2023/10/24 14:58:01;;;;;;;6.75;1.42;;;;;;;;;;10576919;28;20038;-83
2023/10/24 15:03:13;;;;;;;3.60;1.20;;;;;;;;;;10577221;28;20112;-84
2023/10/24 15:08:14;;;;;;;2.13;1.55;;;;;;;;;;10594477;28;20028;-84
2023/10/24 15:13:15;;;;;;;3.42;1.60;;;;;;;;;;10583252;28;20035;-84
2023/10/24 15:18:17;;;;;;;2.42;1.70;;;;;;;;;;10580589;28;20482;-83
2023/10/24 15:23:25;;;;;;;2.85;1.65;;;;;;;;;;10580312;28;20031;-83
2023/10/24 15:28:26;;;;;;;2.70;1.48;;;;;;;;;;10580906;28;20483;-85
2023/10/24 15:33:27;;;;;;;2.22;1.30;;;;;;;;;;10599194;28;20051;-86
2023/10/24 15:38:28;;;;;;;2.30;1.20;;;;;;;;;;10582483;28;20034;-85
2023/10/24 15:43:29;;;;;;;2.35;1.45;;;;;;;;;;10583229;28;20447;-81
2023/10/24 15:48:30;;;;;;;2.75;1.60;;;;;;;;;;10579283;28;20039;-82
2023/10/24 15:53:31;;;;;;;2.60;1.20;;;;;;;;;;10604769;28;20359;-81
2023/10/24 15:58:33;;;;;;;4.07;1.77;;;;;;;;;;10599758;28;20088;-82
2023/10/24 16:03:34;;;;;;;2.65;1.85;;;;;;;;;;10593884;28;20447;-81
2023/10/24 16:08:36;;;;;;;3.55;2.60;;;;;;;;;;10589763;28;20187;-82
2023/10/24 16:13:37;;;;;;;3.72;2.53;;;;;;;;;;10588279;28;20023;-79
2023/10/24 16:18:38;;;;;;;6.03;2.38;;;;;;;;;;10584809;28;20095;-86
2023/10/24 16:23:44;;;;;;;4.00;2.45;;;;;;;;;;10608722;28;20046;-83
2023/10/24 16:28:50;;;;;;;3.42;1.88;;;;;;;;;;10616879;28;20035;-83
2023/10/24 16:33:56;;;;;;;3.47;2.35;;;;;;;;;;10561305;28;20376;-88
2023/10/24 16:39:07;;;;;;;3.40;2.20;;;;;;;;;;10573014;28;20062;-87
2023/10/24 16:44:08;;;;;;;3.05;2.05;;;;;;;;;;10561603;28;20061;-87
2023/10/24 16:49:09;;;;;;;2.42;1.92;;;;;;;;;;10581217;28;20126;-86
2023/10/24 16:54:10;;;;;;;2.80;2.05;;;;;;;;;;10581507;28;20027;-86
2023/10/24 16:59:11;;;;;;;2.92;2.08;;;;;;;;;;10578561;28;20172;-86
2023/10/24 17:04:12;;;;;;;2.90;1.70;;;;;;;;;;10579163;28;20055;-87
2023/10/24 17:09:13;;;;;;;2.50;1.88;;;;;;;;;;10576817;28;20127;-87
2023/10/24 17:14:26;;;;;;;3.92;1.85;;;;;;;;;;10573701;28;20016;-86
2023/10/24 17:19:38;;;;;;;2.50;1.75;;;;;;;;;;10595621;28;20016;-82
2023/10/24 17:24:41;;;;;;;3.20;1.88;;;;;;;;;;10590576;28;20036;-81
2023/10/24 17:29:43;;;;;;;2.40;1.90;;;;;;;;;;10570750;28;20558;-83
2023/10/24 17:34:44;;;;;;;2.45;1.70;;;;;;;;;;10571244;28;20035;-83
2023/10/24 17:39:45;;;;;;;3.30;2.10;;;;;;;;;;10570384;28;20023;-82
2023/10/24 17:44:46;;;;;;;3.80;2.72;;;;;;;;;;10571584;28;20111;-82
2023/10/24 17:49:49;;;;;;;3.67;2.30;;;;;;;;;;10612296;28;20023;-84
2023/10/24 17:54:51;;;;;;;3.58;2.00;;;;;;;;;;10596968;28;20112;-87
2023/10/24 18:00:38;;;;;;;2.38;1.70;;;;;;;;;;10627532;22;20044;-87
2023/10/24 18:05:58;;;;;;;2.17;1.30;;;;;;;;;;10593724;28;20038;-85
2023/10/24 18:10:59;;;;;;;2.75;1.80;;;;;;;;;;10570700;28;20115;-86
2023/10/24 18:16:03;;;;;;;2.55;1.77;;;;;;;;;;10580275;28;20023;-87
2023/10/24 18:21:14;;;;;;;2.95;1.42;;;;;;;;;;10585939;28;20024;-87
2023/10/24 18:26:17;;;;;;;2.70;1.90;;;;;;;;;;10606712;28;20107;-86
2023/10/24 18:31:20;;;;;;;2.33;1.58;;;;;;;;;;10572887;28;20030;-86
2023/10/24 18:36:22;;;;;;;2.40;1.77;;;;;;;;;;10591294;28;20035;-87
2023/10/24 18:41:25;;;;;;;2.60;1.80;;;;;;;;;;10615690;28;20008;-86
2023/10/24 18:46:27;;;;;;;2.30;1.85;;;;;;;;;;10601487;28;20020;-87
2023/10/24 18:51:28;;;;;;;2.17;1.70;;;;;;;;;;10600754;28;20016;-86
2023/10/24 18:56:37;;;;;;;5.55;2.05;;;;;;;;;;10630705;28;20049;-86
2023/10/24 19:01:38;;;;;;;3.70;1.70;;;;;;;;;;10588290;28;20036;-86
2023/10/24 19:06:39;;;;;;;2.50;1.90;;;;;;;;;;10589720;28;20026;-86
